createdAt,value
2023-05-09T00:00:33.188Z,6.55
2023-05-09T00:03:00.182Z,5.43
2023-05-09T00:05:27.200Z,6.22
2023-05-09T00:07:54.026Z,5.80
2023-05-09T00:10:21.014Z,5.57
2023-05-09T00:12:49.466Z,5.43
2023-05-09T00:15:16.620Z,5.57
2023-05-09T00:17:44.756Z,5.05
2023-05-09T00:20:12.791Z,5.15
2023-05-09T00:22:41.125Z,5.05
2023-05-09T00:25:09.410Z,4.95
2023-05-09T00:27:36.247Z,4.82
2023-05-09T00:30:05.069Z,5.28
2023-05-09T00:32:33.287Z,5.43
2023-05-09T00:35:00.275Z,5.40
2023-05-09T00:37:27.129Z,4.95
2023-05-09T00:39:53.961Z,5.25
2023-05-09T00:42:20.913Z,4.72
2023-05-09T00:44:47.768Z,5.45
2023-05-09T00:47:14.599Z,5.65
2023-05-09T00:49:41.492Z,5.55
2023-05-09T00:52:08.363Z,5.43
2023-05-09T00:54:35.238Z,5.13
2023-05-09T00:57:02.321Z,5.07
2023-05-09T00:59:29.295Z,5.53
2023-05-09T01:01:56.176Z,5.10
2023-05-09T01:04:23.086Z,5.15
2023-05-09T01:07:02.445Z,5.22
2023-05-09T01:09:46.184Z,5.57
2023-05-09T01:12:31.221Z,4.75
2023-05-09T01:15:19.150Z,5.72
2023-05-09T01:17:53.813Z,5.18
2023-05-09T01:20:51.976Z,5.10
2023-05-09T01:23:40.341Z,4.95
2023-05-09T01:26:19.747Z,5.28
2023-05-09T01:29:06.378Z,5.20
2023-05-09T01:31:38.267Z,5.35
2023-05-09T01:34:07.460Z,5.60
2023-05-09T01:36:37.293Z,5.22
2023-05-09T01:39:05.920Z,4.68
2023-05-09T01:41:37.017Z,5.13
2023-05-09T01:44:06.902Z,5.20
2023-05-09T01:46:35.409Z,5.07
2023-05-09T01:49:03.690Z,5.53
2023-05-09T01:51:32.063Z,5.32
2023-05-09T01:54:00.395Z,5.70
2023-05-09T01:56:28.020Z,5.70
2023-05-09T01:58:57.574Z,4.85
2023-05-09T02:01:24.922Z,5.53
2023-05-09T02:03:53.210Z,5.40
2023-05-09T02:06:23.275Z,6.13
2023-05-09T02:08:50.960Z,5.30
2023-05-09T02:11:17.885Z,6.10
2023-05-09T02:13:44.767Z,5.45
2023-05-09T02:16:12.293Z,6.65
2023-05-09T02:18:44.936Z,6.95
2023-05-09T02:21:12.195Z,7.50
2023-05-09T02:23:39.116Z,8.27
2023-05-09T02:26:06.647Z,6.88
2023-05-09T02:28:34.311Z,7.35
2023-05-09T02:31:04.592Z,7.25
2023-05-09T02:33:33.000Z,7.50
2023-05-09T02:36:00.853Z,7.80
2023-05-09T02:38:27.802Z,7.53
2023-05-09T02:40:57.966Z,7.63
2023-05-09T02:43:24.933Z,7.07
2023-05-09T02:45:51.955Z,7.65
2023-05-09T02:48:18.797Z,7.78
2023-05-09T02:50:45.983Z,7.03
2023-05-09T02:53:12.821Z,7.70
2023-05-09T02:55:39.693Z,6.78
2023-05-09T02:58:14.352Z,7.30
2023-05-09T03:00:42.189Z,8.63
2023-05-09T03:03:09.429Z,8.20
2023-05-09T03:05:36.514Z,8.75
2023-05-09T03:08:03.515Z,8.70
2023-05-09T03:10:30.353Z,8.68
2023-05-09T03:12:57.296Z,10.45
2023-05-09T03:15:24.179Z,9.45
2023-05-09T03:17:51.124Z,8.82
2023-05-09T03:20:18.210Z,8.65
2023-05-09T03:22:45.050Z,7.20
2023-05-09T03:25:11.978Z,8.65
2023-05-09T03:27:38.851Z,8.50
2023-05-09T03:30:07.020Z,9.15
2023-05-09T03:32:34.010Z,10.10
2023-05-09T03:35:00.825Z,9.18
2023-05-09T03:37:27.706Z,9.73
2023-05-09T03:39:54.531Z,9.73
2023-05-09T03:42:22.286Z,10.15
2023-05-09T03:44:49.117Z,9.80
2023-05-09T03:47:15.924Z,9.18
2023-05-09T03:49:42.753Z,8.88
2023-05-09T03:52:09.620Z,10.43
2023-05-09T03:54:36.447Z,9.10
2023-05-09T03:57:03.547Z,10.05
2023-05-09T03:59:30.484Z,10.18
2023-05-09T04:01:57.972Z,10.43
2023-05-09T04:04:24.988Z,10.80
2023-05-09T04:06:51.858Z,9.75
2023-05-09T04:09:19.342Z,9.73
2023-05-09T04:11:46.679Z,9.52
2023-05-09T04:14:13.514Z,10.82
2023-05-09T04:16:40.419Z,9.73
2023-05-09T04:19:07.329Z,9.80
2023-05-09T04:21:34.313Z,10.70
2023-05-09T04:24:01.260Z,11.43
2023-05-09T04:26:28.216Z,13.48
2023-05-09T04:28:55.058Z,11.52
2023-05-09T04:31:23.184Z,10.80
2023-05-09T04:33:50.230Z,11.32
2023-05-09T04:36:17.156Z,10.82
2023-05-09T04:38:44.131Z,11.88
2023-05-09T04:41:11.085Z,12.00
2023-05-09T04:43:37.941Z,11.55
2023-05-09T04:46:04.812Z,11.68
2023-05-09T04:48:31.682Z,12.18
2023-05-09T04:50:58.599Z,10.82
2023-05-09T04:53:26.044Z,11.38
2023-05-09T04:55:53.541Z,11.43
2023-05-09T04:58:20.689Z,14.77
2023-05-09T05:00:47.560Z,12.20
2023-05-09T05:03:14.393Z,13.20
2023-05-09T05:05:41.696Z,12.30
2023-05-09T05:08:08.572Z,13.07
2023-05-09T05:10:35.608Z,10.73
2023-05-09T05:13:02.751Z,11.88
2023-05-09T05:15:29.616Z,12.60
2023-05-09T05:17:56.638Z,10.98
2023-05-09T05:20:23.614Z,12.65
2023-05-09T05:22:50.623Z,14.13
2023-05-09T05:25:18.913Z,13.40
2023-05-09T05:27:46.191Z,11.32
2023-05-09T05:30:15.568Z,13.40
2023-05-09T05:32:43.646Z,13.50
2023-05-09T05:35:14.121Z,12.35
2023-05-09T05:37:41.797Z,13.20
2023-05-09T05:40:09.273Z,12.48
2023-05-09T05:42:36.305Z,12.98
2023-05-09T05:45:05.885Z,13.07
2023-05-09T05:47:33.747Z,14.38
2023-05-09T05:50:02.458Z,11.85
2023-05-09T05:52:29.706Z,12.00
2023-05-09T05:54:56.638Z,13.38
2023-05-09T05:57:23.421Z,11.80
2023-05-09T05:59:51.275Z,12.60
2023-05-09T06:02:18.550Z,12.20
2023-05-09T06:04:45.408Z,13.80
2023-05-09T06:07:13.908Z,13.68
2023-05-09T06:09:40.879Z,12.77
2023-05-09T06:12:07.888Z,14.10
2023-05-09T06:14:34.725Z,12.13
2023-05-09T06:17:01.754Z,14.32
2023-05-09T06:19:28.812Z,12.50
2023-05-09T06:21:55.720Z,13.55
2023-05-09T06:24:34.408Z,12.38
2023-05-09T06:27:02.538Z,12.82
2023-05-09T06:29:29.443Z,12.93
2023-05-09T06:31:56.282Z,13.52
2023-05-09T06:34:23.139Z,12.13
2023-05-09T06:36:49.984Z,13.77
2023-05-09T06:39:16.849Z,13.02
2023-05-09T06:41:43.657Z,12.68
2023-05-09T06:44:10.562Z,12.27
2023-05-09T06:46:37.731Z,12.23
2023-05-09T06:49:06.049Z,13.65
2023-05-09T06:51:33.146Z,12.35
2023-05-09T06:54:00.017Z,11.98
2023-05-09T06:56:26.988Z,11.80
2023-05-09T06:58:54.064Z,12.68
2023-05-09T07:01:20.961Z,12.68
2023-05-09T07:03:48.505Z,12.10
2023-05-09T07:06:15.797Z,12.18
2023-05-09T07:08:43.030Z,12.27
2023-05-09T07:11:09.841Z,13.25
2023-05-09T07:13:36.807Z,12.63
2023-05-09T07:16:03.960Z,12.52
2023-05-09T07:18:31.012Z,12.88
2023-05-09T07:20:57.807Z,12.38
2023-05-09T07:23:26.309Z,12.10
2023-05-09T07:25:58.876Z,13.75
2023-05-09T07:28:26.294Z,13.40
2023-05-09T07:30:55.664Z,12.90
2023-05-09T07:33:22.713Z,12.93
2023-05-09T07:35:49.755Z,14.13
2023-05-09T07:38:16.612Z,14.32
2023-05-09T07:40:43.465Z,14.02
2023-05-09T07:43:10.310Z,12.73
2023-05-09T07:45:37.221Z,12.88
2023-05-09T07:48:04.386Z,14.60
2023-05-09T07:50:31.478Z,12.50
2023-05-09T07:52:58.405Z,14.13
2023-05-09T07:55:25.281Z,14.88
2023-05-09T07:57:52.130Z,12.98
2023-05-09T08:00:23.618Z,14.50
2023-05-09T08:02:54.244Z,13.18
2023-05-09T08:05:21.300Z,12.93
2023-05-09T08:07:48.149Z,12.23
2023-05-09T08:10:15.069Z,14.00
2023-05-09T08:12:41.946Z,13.98
2023-05-09T08:15:09.154Z,15.32
2023-05-09T08:17:36.036Z,13.35
2023-05-09T08:20:05.489Z,13.43
2023-05-09T08:22:32.374Z,13.02
2023-05-09T08:24:59.209Z,12.80
2023-05-09T08:27:26.322Z,12.95
2023-05-09T08:29:53.317Z,13.98
2023-05-09T08:32:20.278Z,14.52
2023-05-09T08:34:47.096Z,16.08
2023-05-09T08:37:15.277Z,16.35
2023-05-09T08:39:43.098Z,16.25
2023-05-09T08:42:10.507Z,15.60
2023-05-09T08:44:37.300Z,16.10
2023-05-09T08:47:05.180Z,16.52
2023-05-09T08:49:33.368Z,15.65
2023-05-09T08:52:00.560Z,15.93
2023-05-09T08:54:27.701Z,16.13
2023-05-09T08:56:54.855Z,15.98
2023-05-09T08:59:22.901Z,14.93
2023-05-09T09:01:50.186Z,14.82
2023-05-09T09:04:17.254Z,13.30
2023-05-09T09:06:44.399Z,15.13
2023-05-09T09:09:12.946Z,15.52
2023-05-09T09:11:40.797Z,16.05
2023-05-09T09:14:13.868Z,15.02
2023-05-09T09:16:43.720Z,15.05
2023-05-09T09:19:13.184Z,15.65
2023-05-09T09:21:43.362Z,15.55
2023-05-09T09:24:14.657Z,16.83
2023-05-09T09:26:51.907Z,15.70
2023-05-09T09:29:21.282Z,15.77
2023-05-09T09:31:53.280Z,16.10
2023-05-09T09:34:22.925Z,15.50
2023-05-09T09:36:50.790Z,15.70
2023-05-09T09:39:17.930Z,16.90
2023-05-09T09:41:45.234Z,16.33
2023-05-09T09:44:17.005Z,15.80
2023-05-09T09:46:51.168Z,18.40
2023-05-09T09:49:20.413Z,16.52
2023-05-09T09:51:54.375Z,17.02
2023-05-09T09:54:21.778Z,16.63
2023-05-09T09:56:53.358Z,15.98
2023-05-09T09:59:25.666Z,20.02
2023-05-09T10:02:08.398Z,17.35
2023-05-09T10:04:38.747Z,16.38
2023-05-09T10:07:07.768Z,17.48
2023-05-09T10:09:35.864Z,18.90
2023-05-09T10:12:04.878Z,16.48
2023-05-09T10:14:35.008Z,17.55
2023-05-09T10:17:03.716Z,16.05
2023-05-09T10:19:31.958Z,17.08
2023-05-09T10:22:11.857Z,18.58
2023-05-09T10:25:05.709Z,16.38
2023-05-09T10:27:36.674Z,17.23
2023-05-09T10:30:08.825Z,17.10
2023-05-09T10:33:09.258Z,15.57
2023-05-09T10:35:47.113Z,18.95
2023-05-09T10:38:20.421Z,18.73
2023-05-09T10:40:48.162Z,18.00
2023-05-09T10:43:15.327Z,16.08
2023-05-09T10:45:42.585Z,20.48
2023-05-09T10:48:10.043Z,18.42
2023-05-09T10:50:40.469Z,19.92
2023-05-09T10:53:21.684Z,19.65
2023-05-09T10:55:55.372Z,19.58
2023-05-09T10:58:33.748Z,19.98
2023-05-09T11:01:03.694Z,20.58
2023-05-09T11:03:54.970Z,21.52
2023-05-09T11:06:51.271Z,21.98
2023-05-09T11:09:34.969Z,22.35
2023-05-09T11:12:01.850Z,23.35
2023-05-09T11:14:35.717Z,22.98
2023-05-09T11:17:05.064Z,24.20
2023-05-09T11:19:48.107Z,22.77
2023-05-09T11:22:30.797Z,20.95
2023-05-09T11:25:07.789Z,21.52
2023-05-09T11:27:40.826Z,21.67
2023-05-09T11:30:09.170Z,22.00
2023-05-09T11:32:43.893Z,22.50
2023-05-09T11:35:15.549Z,22.80
2023-05-09T11:37:48.228Z,24.33
2023-05-09T11:40:17.683Z,25.60
2023-05-09T11:42:50.029Z,26.00
2023-05-09T11:45:19.810Z,24.65
2023-05-09T11:47:48.118Z,26.10
2023-05-09T11:50:47.695Z,25.52
2023-05-09T11:53:17.702Z,26.00
2023-05-09T11:55:44.612Z,27.05
2023-05-09T11:58:11.814Z,25.75
2023-05-09T12:00:47.081Z,27.35
2023-05-09T12:03:14.309Z,28.00
2023-05-09T12:05:42.675Z,27.42
2023-05-09T12:08:09.809Z,27.25
2023-05-09T12:10:40.196Z,24.95
2023-05-09T12:13:07.283Z,24.55
2023-05-09T12:15:38.034Z,26.25
2023-05-09T12:18:06.909Z,24.90
2023-05-09T12:20:50.234Z,27.55
2023-05-09T12:23:17.476Z,27.55
2023-05-09T12:25:57.287Z,26.60
2023-05-09T12:28:25.696Z,24.23
2023-05-09T12:30:53.661Z,23.20
2023-05-09T12:33:21.720Z,23.17
2023-05-09T12:36:00.635Z,25.33
2023-05-09T12:38:27.514Z,28.65
2023-05-09T12:41:18.173Z,24.98
2023-05-09T12:43:56.026Z,24.83
2023-05-09T12:46:23.058Z,24.50
2023-05-09T12:48:50.235Z,22.17
2023-05-09T12:51:21.659Z,24.67
2023-05-09T12:53:49.170Z,25.88
2023-05-09T12:56:18.739Z,25.20
2023-05-09T12:58:53.396Z,22.85
2023-05-09T13:01:27.466Z,25.95
2023-05-09T13:06:31.682Z,22.92
2023-05-09T13:09:05.468Z,24.25
2023-05-09T13:11:32.363Z,24.17
2023-05-09T13:13:59.346Z,24.67
2023-05-09T13:16:26.253Z,21.10
2023-05-09T13:18:53.108Z,22.48
2023-05-09T13:21:20.194Z,20.45
2023-05-09T13:23:49.429Z,20.83
2023-05-09T13:26:16.340Z,20.13
2023-05-09T13:28:44.469Z,21.02
2023-05-09T13:31:11.355Z,19.83
2023-05-09T13:33:38.583Z,18.92
2023-05-09T13:36:06.623Z,21.58
2023-05-09T13:38:37.340Z,20.52
2023-05-09T13:41:04.625Z,22.33
2023-05-09T13:43:31.476Z,20.95
2023-05-09T13:45:58.447Z,20.73
2023-05-09T13:48:25.341Z,19.92
2023-05-09T13:50:52.326Z,22.33
2023-05-09T13:53:20.145Z,21.42
2023-05-09T13:55:47.211Z,20.77
2023-05-09T13:58:14.413Z,24.20
2023-05-09T14:00:43.718Z,21.77
2023-05-09T14:03:10.527Z,22.95
2023-05-09T14:05:37.407Z,23.95
2023-05-09T14:08:04.487Z,24.58
2023-05-09T14:10:31.315Z,25.95
2023-05-09T14:12:58.727Z,25.55
2023-05-09T14:15:26.005Z,24.40
2023-05-09T14:17:52.916Z,21.88
2023-05-09T14:20:20.904Z,23.73
2023-05-09T14:22:48.487Z,23.98
2023-05-09T14:25:15.489Z,22.55
2023-05-09T14:27:42.352Z,23.42
2023-05-09T14:30:09.700Z,24.23
2023-05-09T14:32:36.615Z,22.27
2023-05-09T14:35:03.927Z,22.85
2023-05-09T14:37:30.879Z,23.20
2023-05-09T14:39:57.781Z,21.98
2023-05-09T14:42:24.749Z,19.75
2023-05-09T14:44:51.681Z,18.17
2023-05-09T14:47:18.540Z,16.58
2023-05-09T14:49:45.593Z,14.57
2023-05-09T14:52:13.765Z,12.07
2023-05-09T14:54:41.253Z,12.05
2023-05-09T14:57:08.396Z,11.65
2023-05-09T14:59:37.109Z,10.75
2023-05-09T15:02:04.297Z,12.80
2023-05-09T15:04:31.483Z,12.80
2023-05-09T15:06:59.251Z,11.55
2023-05-09T15:09:26.903Z,12.02
2023-05-09T15:11:54.914Z,10.82
2023-05-09T15:14:22.019Z,10.13
2023-05-09T15:16:51.521Z,9.38
2023-05-09T15:19:18.754Z,9.07
2023-05-09T15:21:45.590Z,9.55
2023-05-09T15:24:12.750Z,10.68
2023-05-09T15:26:39.723Z,8.98
2023-05-09T15:29:07.090Z,9.02
2023-05-09T15:31:36.531Z,9.35
2023-05-09T15:34:03.654Z,9.77
2023-05-09T15:36:30.525Z,9.55
2023-05-09T15:38:57.369Z,10.35
2023-05-09T15:41:24.425Z,8.60
2023-05-09T15:43:52.296Z,8.77
2023-05-09T15:46:19.537Z,10.23
2023-05-09T15:48:46.394Z,8.82
2023-05-09T15:51:13.982Z,9.05
2023-05-09T15:53:41.030Z,7.53
2023-05-09T15:56:08.847Z,9.43
2023-05-09T15:58:36.106Z,8.63
2023-05-09T16:06:28.683Z,9.57
2023-05-09T16:08:55.568Z,8.25
2023-05-09T16:11:22.672Z,8.70
2023-05-09T16:13:49.550Z,7.50
2023-05-09T16:16:16.746Z,8.70
2023-05-09T16:18:43.625Z,6.55
2023-05-09T16:21:10.592Z,6.60
2023-05-09T16:23:39.530Z,6.65
2023-05-09T16:26:09.427Z,5.80
2023-05-09T16:28:36.419Z,5.93
2023-05-09T16:31:08.116Z,6.15
2023-05-09T16:33:35.221Z,5.68
2023-05-09T16:36:02.108Z,4.88
2023-05-09T16:38:29.083Z,5.47
2023-05-09T16:40:56.375Z,4.75
2023-05-09T16:43:23.308Z,6.03
2023-05-09T16:45:50.305Z,6.10
2023-05-09T16:48:18.645Z,5.18
2023-05-09T16:50:46.255Z,4.80
2023-05-09T16:53:13.102Z,4.45
2023-05-09T16:55:40.090Z,5.22
2023-05-09T16:58:07.636Z,4.80
2023-05-09T17:00:34.645Z,5.85
2023-05-09T17:03:01.701Z,4.85
2023-05-09T17:05:28.812Z,3.85
2023-05-09T17:07:55.684Z,3.83
2023-05-09T17:10:22.770Z,4.22
2023-05-09T17:12:50.431Z,4.30
2023-05-09T17:15:17.633Z,4.35
2023-05-09T17:17:47.343Z,4.13
2023-05-09T17:20:14.566Z,3.50
2023-05-09T17:22:41.637Z,3.45
2023-05-09T17:25:09.188Z,3.67
2023-05-09T17:27:36.153Z,3.80
2023-05-09T17:30:03.352Z,3.92
2023-05-09T17:32:30.373Z,4.63
2023-05-09T17:34:57.353Z,3.65
2023-05-09T17:37:24.313Z,3.60
2023-05-09T17:39:52.034Z,4.13
2023-05-09T17:42:18.911Z,4.18
2023-05-09T17:44:46.236Z,3.90
2023-05-09T17:47:14.306Z,2.80
2023-05-09T17:49:41.493Z,2.92
2023-05-09T17:52:08.654Z,2.53
2023-05-09T17:54:37.379Z,2.60
2023-05-09T17:57:04.487Z,2.63
2023-05-09T17:59:31.316Z,2.33
2023-05-09T18:01:58.229Z,2.10
2023-05-09T18:04:25.960Z,2.00
2023-05-09T18:06:53.331Z,1.75
2023-05-09T18:09:20.235Z,1.60
2023-05-09T18:11:47.212Z,1.83
2023-05-09T18:14:14.115Z,1.80
2023-05-09T18:16:41.340Z,1.25
2023-05-09T18:19:08.292Z,2.17
2023-05-09T18:21:35.420Z,1.60
2023-05-09T18:24:02.465Z,1.80
2023-05-09T18:26:29.625Z,1.92
2023-05-09T18:28:56.774Z,1.55
2023-05-09T18:31:23.832Z,1.85
2023-05-09T18:33:51.185Z,1.85
2023-05-09T18:36:19.194Z,1.52
2023-05-09T18:38:47.748Z,1.73
2023-05-09T18:41:15.836Z,1.80
2023-05-09T18:43:46.103Z,1.70
2023-05-09T18:46:17.713Z,1.75
2023-05-09T18:48:46.444Z,1.85
2023-05-09T18:51:13.400Z,1.95
2023-05-09T18:53:40.511Z,1.90
2023-05-09T18:56:07.736Z,2.30
2023-05-09T18:58:35.400Z,2.95
2023-05-09T19:01:02.754Z,2.40
2023-05-09T19:03:29.770Z,2.40
2023-05-09T19:05:58.066Z,1.77
2023-05-09T19:08:26.227Z,1.77
2023-05-09T19:10:53.072Z,2.22
2023-05-09T19:13:20.001Z,1.65
2023-05-09T19:15:47.789Z,2.03
2023-05-09T19:18:14.768Z,1.60
2023-05-09T19:20:46.505Z,2.05
2023-05-09T19:23:13.378Z,1.77
2023-05-09T19:25:40.183Z,2.25
2023-05-09T19:28:07.023Z,2.30
2023-05-09T19:30:34.411Z,1.75
2023-05-09T19:33:01.396Z,1.40
2023-05-09T19:35:28.285Z,1.98
2023-05-09T19:37:55.275Z,1.30
2023-05-09T19:40:22.225Z,1.73
2023-05-09T19:42:49.111Z,2.40
2023-05-09T19:45:16.250Z,1.92
2023-05-09T19:47:43.665Z,1.70
2023-05-09T19:50:11.136Z,1.80
2023-05-09T19:52:37.932Z,1.85
2023-05-09T19:55:06.093Z,2.17
2023-05-09T19:57:33.206Z,1.88
2023-05-09T20:00:00.091Z,2.30
2023-05-09T20:02:29.475Z,2.63
2023-05-09T20:04:56.419Z,2.30
2023-05-09T20:07:23.945Z,2.75
2023-05-09T20:09:51.126Z,2.10
2023-05-09T20:12:18.085Z,2.75
2023-05-09T20:14:44.991Z,2.42
2023-05-09T20:17:11.791Z,2.60
2023-05-09T20:19:38.645Z,2.83
2023-05-09T20:22:06.601Z,2.63
2023-05-09T20:24:33.452Z,2.80
2023-05-09T20:27:02.255Z,2.60
2023-05-09T20:29:29.204Z,2.85
2023-05-09T20:31:56.185Z,2.78
2023-05-09T20:34:24.602Z,3.08
2023-05-09T20:36:53.791Z,3.45
2023-05-09T20:39:21.123Z,3.38
2023-05-09T20:41:49.434Z,3.20
2023-05-09T20:44:17.780Z,3.00
2023-05-09T20:46:45.390Z,3.28
2023-05-09T20:49:12.684Z,2.67
2023-05-09T20:51:39.644Z,3.35
2023-05-09T20:54:06.718Z,3.40
2023-05-09T20:56:35.517Z,3.08
2023-05-09T20:59:04.074Z,3.67
2023-05-09T21:01:34.295Z,3.75
2023-05-09T21:04:01.339Z,4.15
2023-05-09T21:06:28.241Z,4.07
2023-05-09T21:08:55.175Z,4.60
2023-05-09T21:11:22.371Z,4.28
2023-05-09T21:13:49.298Z,3.95
2023-05-09T21:16:16.162Z,5.35
2023-05-09T21:18:43.032Z,4.63
2023-05-09T21:21:10.061Z,4.40
2023-05-09T21:23:37.173Z,4.80
2023-05-09T21:26:04.187Z,5.28
2023-05-09T21:28:31.495Z,4.40
2023-05-09T21:31:00.741Z,5.28
2023-05-09T21:33:28.015Z,5.13
2023-05-09T21:35:54.952Z,5.00
2023-05-09T21:38:21.787Z,5.82
2023-05-09T21:40:51.537Z,5.78
2023-05-09T21:43:18.486Z,4.60
2023-05-09T21:45:45.988Z,5.07
2023-05-09T21:48:13.255Z,4.15
2023-05-09T21:50:40.189Z,4.13
2023-05-09T21:53:07.051Z,4.30
2023-05-09T21:55:33.845Z,5.25
2023-05-09T21:58:01.042Z,5.10
2023-05-09T22:00:27.862Z,3.92
2023-05-09T22:02:54.816Z,3.97
2023-05-09T22:05:23.265Z,5.10
2023-05-09T22:07:51.154Z,4.70
2023-05-09T22:10:18.370Z,4.78
2023-05-09T22:12:45.860Z,5.35
2023-05-09T22:15:13.119Z,5.50
2023-05-09T22:17:40.047Z,5.35
2023-05-09T22:20:07.438Z,5.35
2023-05-09T22:22:34.401Z,5.15
2023-05-09T22:25:01.217Z,5.30
2023-05-09T22:27:28.129Z,5.32
2023-05-09T22:29:55.479Z,6.18
2023-05-09T22:32:22.429Z,5.97
2023-05-09T22:34:49.291Z,5.95
2023-05-09T22:37:16.232Z,5.10
2023-05-09T22:39:43.086Z,5.82
2023-05-09T22:42:11.303Z,5.88
2023-05-09T22:44:39.178Z,6.45
2023-05-09T22:47:09.811Z,6.13
2023-05-09T22:49:36.688Z,6.03
2023-05-09T22:52:03.708Z,5.65
2023-05-09T22:54:30.593Z,6.35
2023-05-09T22:56:57.427Z,5.93
2023-05-09T22:59:24.324Z,6.20
2023-05-09T23:01:51.854Z,6.70
2023-05-09T23:04:18.678Z,7.03
2023-05-09T23:06:45.631Z,6.20
2023-05-09T23:09:12.813Z,5.80
2023-05-09T23:11:39.948Z,6.80
2023-05-09T23:14:07.377Z,6.03
2023-05-09T23:16:34.364Z,7.18
2023-05-09T23:19:01.128Z,6.65
2023-05-09T23:21:29.134Z,7.18
2023-05-09T23:23:56.202Z,7.13
2023-05-09T23:26:23.059Z,7.28
2023-05-09T23:28:49.932Z,7.40
2023-05-09T23:31:16.898Z,6.55
2023-05-09T23:33:43.987Z,7.15
2023-05-09T23:36:10.882Z,7.55
2023-05-09T23:38:37.709Z,6.85
2023-05-09T23:41:04.537Z,7.70
2023-05-09T23:43:31.360Z,7.95
2023-05-09T23:45:58.219Z,7.25
2023-05-09T23:48:25.807Z,7.45
2023-05-09T23:50:52.637Z,7.00
2023-05-09T23:53:19.553Z,7.85
2023-05-09T23:55:46.390Z,8.32
2023-05-09T23:58:13.215Z,6.93
